createdAt,value
2024-02-02T00:01:52.739Z,30.00
2024-02-02T00:04:19.816Z,28.95
2024-02-02T00:06:47.108Z,28.55
2024-02-02T00:09:14.300Z,29.10
2024-02-02T00:11:41.476Z,30.55
2024-02-02T00:14:08.810Z,33.45
2024-02-02T00:16:35.831Z,27.83
2024-02-02T00:19:06.247Z,33.80
2024-02-02T00:21:33.458Z,43.40
2024-02-02T00:24:00.599Z,32.80
2024-02-02T00:26:27.749Z,32.33
2024-02-02T00:28:55.408Z,30.58
2024-02-02T00:31:23.441Z,35.63
2024-02-02T00:33:50.770Z,41.03
2024-02-02T00:36:18.234Z,26.95
2024-02-02T00:38:45.462Z,33.63
2024-02-02T00:41:12.453Z,24.65
2024-02-02T00:43:39.474Z,28.63
2024-02-02T00:46:06.743Z,28.73
2024-02-02T00:48:35.642Z,32.45
2024-02-02T00:51:05.073Z,28.90
2024-02-02T00:53:32.213Z,26.35
2024-02-02T00:55:59.225Z,29.50
2024-02-02T00:58:26.321Z,30.27
2024-02-02T01:00:53.438Z,27.77
2024-02-02T01:03:20.538Z,29.40
2024-02-02T01:05:47.520Z,27.58
2024-02-02T01:08:15.465Z,35.45
2024-02-02T01:10:42.868Z,27.08
2024-02-02T01:13:10.040Z,26.38
2024-02-02T01:15:37.291Z,33.20
2024-02-02T01:18:08.783Z,32.53
2024-02-02T01:20:36.330Z,29.80
2024-02-02T01:23:04.332Z,26.67
2024-02-02T01:25:31.585Z,29.13
2024-02-02T01:27:58.713Z,27.25
2024-02-02T01:30:27.809Z,32.25
2024-02-02T01:32:54.960Z,25.67
2024-02-02T01:35:23.054Z,25.58
2024-02-02T01:37:50.352Z,29.17
2024-02-02T01:40:21.056Z,26.92
2024-02-02T01:42:48.272Z,28.90
2024-02-02T01:45:15.616Z,27.55
2024-02-02T01:47:42.740Z,27.67
2024-02-02T01:50:10.428Z,31.27
2024-02-02T01:52:37.732Z,26.88
2024-02-02T01:55:05.491Z,31.98
2024-02-02T01:57:32.782Z,32.33
2024-02-02T02:00:01.539Z,28.25
2024-02-02T02:02:37.598Z,27.80
2024-02-02T02:05:04.952Z,30.00
2024-02-02T02:07:32.200Z,29.02
2024-02-02T02:09:59.374Z,26.48
2024-02-02T02:12:26.429Z,28.17
2024-02-02T02:14:53.736Z,30.95
2024-02-02T02:17:20.892Z,29.83
2024-02-02T02:22:18.756Z,31.60
2024-02-02T02:24:46.050Z,37.65
2024-02-02T02:27:13.135Z,31.92
2024-02-02T02:29:40.221Z,32.78
2024-02-02T02:32:08.044Z,34.22
2024-02-02T02:34:37.908Z,27.75
2024-02-02T02:37:05.164Z,30.88
2024-02-02T02:39:32.266Z,29.65
2024-02-02T02:41:59.336Z,27.00
2024-02-02T02:44:27.008Z,35.42
2024-02-02T02:46:54.071Z,27.48
2024-02-02T02:49:21.280Z,27.75
2024-02-02T02:51:49.584Z,28.40
2024-02-02T02:54:16.909Z,29.23
2024-02-02T02:56:51.458Z,29.20
2024-02-02T02:59:19.753Z,31.02
2024-02-02T03:01:47.405Z,29.60
2024-02-02T03:04:14.787Z,27.52
2024-02-02T03:06:41.922Z,27.33
2024-02-02T03:09:09.731Z,26.75
2024-02-02T03:11:37.386Z,37.72
2024-02-02T03:14:06.948Z,25.35
2024-02-02T03:16:34.209Z,24.52
2024-02-02T03:19:05.699Z,28.58
2024-02-02T03:21:33.017Z,28.38
2024-02-02T03:24:00.107Z,26.40
2024-02-02T03:26:27.201Z,29.38
2024-02-02T03:28:54.226Z,23.80
2024-02-02T03:31:21.321Z,29.58
2024-02-02T03:33:48.458Z,25.55
2024-02-02T03:36:15.620Z,25.80
2024-02-02T03:38:42.731Z,27.35
2024-02-02T03:41:09.970Z,27.50
2024-02-02T03:43:36.999Z,23.67
2024-02-02T03:46:04.163Z,28.23
2024-02-02T03:48:31.937Z,25.35
2024-02-02T03:50:59.101Z,27.80
2024-02-02T03:53:26.120Z,26.27
2024-02-02T03:55:53.479Z,26.80
2024-02-02T03:58:20.484Z,23.95
2024-02-02T04:00:47.779Z,26.15
2024-02-02T04:03:14.930Z,32.15
2024-02-02T04:05:42.551Z,30.13
2024-02-02T04:08:09.783Z,25.73
2024-02-02T04:10:36.893Z,30.02
2024-02-02T04:13:03.992Z,22.40
2024-02-02T04:15:33.264Z,29.27
2024-02-02T04:18:04.514Z,26.63
2024-02-02T04:20:31.651Z,24.10
2024-02-02T04:22:59.057Z,24.63
2024-02-02T04:25:26.182Z,28.95
2024-02-02T04:27:53.943Z,24.58
2024-02-02T04:30:21.145Z,27.08
2024-02-02T04:32:48.388Z,27.45
2024-02-02T04:35:15.613Z,33.33
2024-02-02T04:37:44.810Z,29.23
2024-02-02T04:40:12.229Z,23.95
2024-02-02T04:42:39.293Z,26.50
2024-02-02T04:45:06.881Z,26.27
2024-02-02T04:47:33.934Z,33.00
2024-02-02T04:50:01.160Z,23.60
2024-02-02T04:52:28.225Z,31.75
2024-02-02T04:54:57.096Z,25.60
2024-02-02T04:57:24.311Z,32.03
2024-02-02T04:59:51.410Z,29.50
2024-02-02T05:02:18.730Z,34.03
2024-02-02T05:04:45.902Z,27.50
2024-02-02T05:07:13.125Z,29.45
2024-02-02T05:09:40.260Z,31.85
2024-02-02T05:12:07.961Z,38.33
2024-02-02T05:14:35.218Z,28.30
2024-02-02T05:17:03.055Z,30.25
2024-02-02T05:19:30.295Z,40.13
2024-02-02T05:21:57.399Z,28.63
2024-02-02T05:24:37.238Z,30.27
2024-02-02T05:27:13.652Z,32.25
2024-02-02T05:29:40.865Z,27.08
2024-02-02T05:32:08.061Z,37.25
2024-02-02T05:34:35.238Z,30.10
2024-02-02T05:37:02.766Z,29.92
2024-02-02T05:39:30.587Z,27.80
2024-02-02T05:41:59.198Z,29.65
2024-02-02T05:44:26.450Z,32.60
2024-02-02T05:46:53.820Z,28.50
2024-02-02T05:49:21.113Z,27.67
2024-02-02T05:51:49.434Z,27.30
2024-02-02T05:54:16.781Z,29.50
2024-02-02T05:56:43.867Z,32.13
2024-02-02T05:59:11.017Z,31.98
2024-02-02T06:01:38.062Z,35.17
2024-02-02T06:04:05.288Z,29.45
2024-02-02T06:06:32.733Z,28.02
2024-02-02T06:09:00.894Z,30.80
2024-02-02T06:11:28.252Z,31.98
2024-02-02T06:13:57.468Z,27.70
2024-02-02T06:16:26.105Z,37.38
2024-02-02T06:19:04.391Z,28.80
2024-02-02T06:21:31.579Z,24.77
2024-02-02T06:23:58.654Z,35.75
2024-02-02T06:26:25.775Z,32.13
2024-02-02T06:28:52.810Z,30.65
2024-02-02T06:31:22.385Z,25.17
2024-02-02T06:33:49.672Z,24.42
2024-02-02T06:36:16.835Z,30.83
2024-02-02T06:38:43.801Z,29.13
2024-02-02T06:41:12.247Z,24.10
2024-02-02T06:43:39.278Z,27.27
2024-02-02T06:46:06.396Z,29.85
2024-02-02T06:48:33.571Z,34.70
2024-02-02T06:51:02.990Z,32.45
2024-02-02T06:53:33.916Z,29.13
2024-02-02T06:56:00.912Z,28.88
2024-02-02T06:58:42.775Z,30.30
2024-02-02T07:01:11.028Z,26.08
2024-02-02T07:03:39.012Z,27.52
2024-02-02T07:06:07.416Z,31.95
2024-02-02T07:08:34.825Z,33.65
2024-02-02T07:11:35.811Z,34.63
2024-02-02T07:14:10.761Z,41.67
2024-02-02T07:16:41.433Z,37.30
2024-02-02T07:19:33.872Z,34.13
2024-02-02T07:22:01.073Z,34.97
2024-02-02T07:24:28.167Z,39.15
2024-02-02T07:26:55.448Z,30.15
2024-02-02T07:29:51.631Z,35.13
2024-02-02T07:32:19.412Z,32.35
2024-02-02T07:34:49.493Z,36.25
2024-02-02T07:37:48.975Z,31.15
2024-02-02T07:41:02.187Z,29.23
2024-02-02T07:43:34.183Z,29.48
2024-02-02T07:46:02.809Z,25.23
2024-02-02T07:48:31.362Z,26.95
2024-02-02T07:50:58.456Z,30.83
2024-02-02T07:53:26.071Z,29.63
2024-02-02T07:55:53.406Z,32.83
2024-02-02T07:58:23.857Z,27.98
2024-02-02T08:00:51.825Z,29.02
2024-02-02T08:03:19.591Z,29.10
2024-02-02T08:05:48.605Z,37.20
2024-02-02T08:08:15.956Z,35.83
2024-02-02T08:10:44.354Z,32.22
2024-02-02T08:13:14.035Z,29.08
2024-02-02T08:15:41.604Z,28.13
2024-02-02T08:18:10.005Z,28.10
2024-02-02T08:20:37.488Z,30.67
2024-02-02T08:23:06.001Z,31.42
2024-02-02T08:25:34.094Z,35.58
2024-02-02T08:28:02.403Z,28.27
2024-02-02T08:30:29.853Z,30.20
2024-02-02T08:32:57.222Z,35.65
2024-02-02T08:35:26.417Z,31.35
2024-02-02T08:38:03.981Z,38.85
2024-02-02T08:40:40.261Z,38.50
2024-02-02T08:43:18.389Z,30.42
2024-02-02T08:45:54.614Z,33.90
2024-02-02T08:48:33.853Z,24.73
2024-02-02T08:51:02.020Z,37.60
2024-02-02T08:53:30.988Z,27.60
2024-02-02T08:56:02.791Z,34.20
2024-02-02T08:58:36.393Z,26.63
2024-02-02T09:01:05.229Z,26.90
2024-02-02T09:03:35.388Z,34.22
2024-02-02T09:06:08.544Z,26.08
2024-02-02T09:08:39.601Z,27.52
2024-02-02T09:11:27.314Z,24.85
2024-02-02T09:14:19.143Z,28.60
2024-02-02T09:16:53.886Z,28.73
2024-02-02T09:19:28.951Z,27.58
2024-02-02T09:21:59.874Z,25.35
2024-02-02T09:24:43.403Z,32.08
2024-02-02T09:27:21.027Z,24.70
2024-02-02T09:29:49.771Z,29.38
2024-02-02T09:32:17.677Z,24.77
2024-02-02T09:34:46.890Z,28.77
2024-02-02T09:37:28.206Z,30.60
2024-02-02T09:39:56.623Z,39.50
2024-02-02T09:42:55.792Z,33.60
2024-02-02T09:46:01.072Z,29.45
2024-02-02T09:48:58.893Z,29.65
2024-02-02T09:52:03.961Z,26.75
2024-02-02T09:54:50.827Z,25.90
2024-02-02T09:57:42.925Z,25.08
2024-02-02T10:00:27.936Z,28.02
2024-02-02T10:02:55.006Z,29.17
2024-02-02T10:05:36.987Z,21.70
2024-02-02T10:08:48.556Z,21.88
2024-02-02T10:11:31.952Z,25.55
2024-02-02T10:14:16.052Z,29.95
2024-02-02T10:17:13.695Z,24.63
2024-02-02T10:20:35.796Z,23.67
2024-02-02T10:23:25.894Z,20.15
2024-02-02T10:26:09.757Z,24.35
2024-02-02T10:28:36.786Z,30.08
2024-02-02T10:31:45.477Z,35.92
2024-02-02T10:34:29.353Z,32.63
2024-02-02T10:37:24.200Z,18.77
2024-02-02T10:40:40.964Z,19.38
2024-02-02T10:43:14.291Z,21.25
2024-02-02T10:46:13.348Z,24.48
2024-02-02T10:48:53.373Z,16.40
2024-02-02T10:51:42.169Z,16.08
2024-02-02T10:54:50.489Z,20.80
2024-02-02T10:57:31.938Z,19.05
2024-02-02T11:03:14.748Z,13.63
2024-02-02T11:05:53.130Z,20.52
2024-02-02T11:08:23.561Z,31.73
2024-02-02T11:10:53.571Z,17.25
2024-02-02T11:13:33.031Z,28.45
2024-02-02T11:16:08.859Z,21.50
2024-02-02T11:19:07.803Z,18.42
2024-02-02T11:22:12.731Z,16.08
2024-02-02T11:25:18.247Z,20.00
2024-02-02T11:27:50.243Z,17.00
2024-02-02T11:30:26.864Z,13.55
2024-02-02T11:32:56.904Z,10.55
2024-02-02T11:35:53.007Z,17.88
2024-02-02T11:38:32.507Z,12.20
2024-02-02T11:40:59.999Z,16.35
2024-02-02T11:43:28.980Z,17.60
2024-02-02T11:45:57.196Z,14.02
2024-02-02T11:48:37.089Z,11.25
2024-02-02T11:51:05.938Z,17.67
2024-02-02T11:53:46.280Z,17.33
2024-02-02T11:56:34.957Z,18.77
2024-02-02T11:59:12.457Z,16.08
2024-02-02T12:02:19.646Z,12.23
2024-02-02T12:04:49.445Z,14.88
2024-02-02T12:07:31.450Z,13.00
2024-02-02T12:10:11.313Z,15.07
2024-02-02T12:12:47.413Z,20.15
2024-02-02T12:15:15.966Z,12.88
2024-02-02T12:17:44.029Z,15.48
2024-02-02T12:20:12.879Z,16.65
2024-02-02T12:22:41.172Z,18.40
2024-02-02T12:25:11.113Z,13.18
2024-02-02T12:27:38.990Z,18.98
2024-02-02T12:30:10.429Z,16.02
2024-02-02T12:32:38.070Z,21.65
2024-02-02T12:35:07.195Z,16.23
2024-02-02T12:38:05.520Z,14.52
2024-02-02T12:40:33.608Z,16.38
2024-02-02T12:43:02.818Z,17.77
2024-02-02T12:45:32.835Z,20.58
2024-02-02T12:48:01.622Z,20.35
2024-02-02T12:50:28.809Z,18.58
2024-02-02T12:52:56.176Z,18.25
2024-02-02T12:55:23.383Z,27.50
2024-02-02T12:57:51.961Z,17.02
2024-02-02T13:00:21.948Z,14.18
2024-02-02T13:02:54.147Z,17.77
2024-02-02T13:05:23.485Z,15.55
2024-02-02T13:07:52.600Z,16.98
2024-02-02T13:10:39.278Z,13.40
2024-02-02T13:13:23.465Z,21.88
2024-02-02T13:15:50.742Z,17.15
2024-02-02T13:18:21.219Z,14.38
2024-02-02T13:20:51.229Z,13.10
2024-02-02T13:23:28.985Z,15.18
2024-02-02T13:26:02.588Z,26.05
2024-02-02T13:28:31.329Z,19.57
2024-02-02T13:31:08.445Z,15.65
2024-02-02T13:33:37.254Z,14.80
2024-02-02T13:36:10.951Z,20.23
2024-02-02T13:38:41.987Z,11.43
2024-02-02T13:41:09.220Z,14.93
2024-02-02T13:43:39.061Z,11.05
2024-02-02T13:46:08.789Z,24.98
2024-02-02T13:48:45.373Z,14.52
2024-02-02T13:51:13.212Z,18.70
2024-02-02T13:53:40.586Z,11.82
2024-02-02T13:56:11.416Z,17.67
2024-02-02T13:58:43.361Z,18.27
2024-02-02T14:01:19.236Z,14.15
2024-02-02T14:03:47.491Z,8.82
2024-02-02T14:06:15.465Z,11.55
2024-02-02T14:08:49.160Z,19.13
2024-02-02T14:11:23.908Z,10.85
2024-02-02T14:13:56.033Z,11.45
2024-02-02T14:16:27.957Z,12.93
2024-02-02T14:19:02.783Z,12.02
2024-02-02T14:21:35.150Z,9.98
2024-02-02T14:24:16.347Z,11.50
2024-02-02T14:26:57.631Z,11.45
2024-02-02T14:29:26.914Z,10.05
2024-02-02T14:31:58.667Z,10.80
2024-02-02T14:34:28.365Z,15.63
2024-02-02T14:36:56.314Z,9.43
2024-02-02T14:39:27.746Z,9.95
2024-02-02T14:41:56.458Z,14.45
2024-02-02T14:44:24.933Z,23.77
2024-02-02T14:46:52.047Z,15.02
2024-02-02T14:49:23.195Z,10.68
2024-02-02T14:51:51.706Z,11.07
2024-02-02T14:54:19.191Z,13.40
2024-02-02T14:56:46.884Z,16.65
2024-02-02T14:59:21.750Z,13.82
2024-02-02T15:01:49.525Z,17.88
2024-02-02T15:04:17.408Z,16.50
2024-02-02T15:06:44.985Z,19.65
2024-02-02T15:09:17.720Z,13.60
2024-02-02T15:11:45.825Z,16.90
2024-02-02T15:14:13.855Z,19.83
2024-02-02T15:16:40.989Z,14.88
2024-02-02T15:19:08.269Z,14.45
2024-02-02T15:21:35.621Z,17.55
2024-02-02T15:24:03.074Z,14.80
2024-02-02T15:26:30.280Z,18.40
2024-02-02T15:28:57.313Z,17.33
2024-02-02T15:31:24.835Z,12.70
2024-02-02T15:33:52.010Z,17.85
2024-02-02T15:36:19.397Z,13.93
2024-02-02T15:39:06.100Z,18.50
2024-02-02T15:41:36.211Z,13.80
2024-02-02T15:46:30.446Z,21.08
2024-02-02T15:48:57.573Z,19.27
2024-02-02T15:51:25.441Z,20.17
2024-02-02T15:53:52.800Z,12.18
2024-02-02T15:56:25.649Z,13.27
2024-02-02T15:58:53.585Z,12.52
2024-02-02T16:01:20.716Z,10.85
2024-02-02T16:03:47.998Z,17.30
2024-02-02T16:06:21.590Z,19.50
2024-02-02T16:08:49.318Z,11.48
2024-02-02T16:11:17.146Z,11.13
2024-02-02T16:13:47.178Z,17.60
2024-02-02T16:16:14.265Z,11.70
2024-02-02T16:18:41.541Z,11.82
2024-02-02T16:21:08.844Z,18.13
2024-02-02T16:23:35.911Z,18.50
2024-02-02T16:26:02.930Z,12.65
2024-02-02T16:28:30.583Z,13.02
2024-02-02T16:30:57.643Z,11.43
2024-02-02T16:33:24.875Z,15.90
2024-02-02T16:35:52.031Z,18.33
2024-02-02T16:38:19.368Z,29.88
2024-02-02T16:40:46.436Z,18.77
2024-02-02T16:43:13.593Z,15.75
2024-02-02T16:45:41.869Z,32.08
2024-02-02T16:48:09.818Z,24.10
2024-02-02T16:50:38.343Z,29.63
2024-02-02T16:53:07.311Z,27.92
2024-02-02T16:55:34.805Z,36.28
2024-02-02T16:58:01.921Z,29.30
2024-02-02T17:00:30.463Z,28.27
2024-02-02T17:02:57.637Z,29.63
2024-02-02T17:05:24.794Z,25.98
2024-02-02T17:07:51.734Z,25.52
2024-02-02T17:10:18.758Z,26.05
2024-02-02T17:12:45.848Z,25.02
2024-02-02T17:15:12.993Z,25.73
2024-02-02T17:17:41.826Z,23.67
2024-02-02T17:20:11.679Z,26.77
2024-02-02T17:22:44.302Z,25.38
2024-02-02T17:25:12.340Z,23.20
2024-02-02T17:27:39.597Z,24.00
2024-02-02T17:30:08.086Z,23.63
2024-02-02T17:32:39.942Z,25.52
2024-02-02T17:35:08.982Z,29.85
2024-02-02T17:37:36.639Z,28.27
2024-02-02T17:40:05.380Z,32.65
2024-02-02T17:42:32.590Z,29.67
2024-02-02T17:44:59.727Z,32.03
2024-02-02T17:47:26.835Z,29.75
2024-02-02T17:49:56.757Z,21.77
2024-02-02T17:52:25.294Z,29.75
2024-02-02T17:54:52.429Z,22.42
2024-02-02T17:57:20.067Z,33.70
2024-02-02T17:59:47.378Z,23.40
2024-02-02T18:02:14.670Z,26.02
2024-02-02T18:04:41.940Z,27.27
2024-02-02T18:07:11.466Z,26.50
2024-02-02T18:09:40.447Z,22.58
2024-02-02T18:12:16.332Z,26.90
2024-02-02T18:14:43.481Z,27.10
2024-02-02T18:17:15.598Z,28.75
2024-02-02T18:19:42.714Z,23.63
2024-02-02T18:22:10.445Z,23.23
2024-02-02T18:24:37.650Z,23.55
2024-02-02T18:27:05.082Z,21.83
2024-02-02T18:29:32.194Z,23.73
2024-02-02T18:31:59.362Z,24.80
2024-02-02T18:34:26.674Z,24.05
2024-02-02T18:36:58.695Z,24.40
2024-02-02T18:39:37.069Z,27.42
2024-02-02T18:42:07.118Z,30.20
2024-02-02T18:44:36.045Z,27.65
2024-02-02T18:47:04.069Z,27.60
2024-02-02T18:49:31.724Z,32.00
2024-02-02T18:51:58.993Z,27.65
2024-02-02T18:54:26.250Z,27.33
2024-02-02T18:56:53.818Z,25.60
2024-02-02T18:59:20.913Z,26.10
2024-02-02T19:01:48.048Z,27.33
2024-02-02T19:04:15.272Z,33.75
2024-02-02T19:06:42.600Z,31.00
2024-02-02T19:09:12.910Z,29.55
2024-02-02T19:11:40.427Z,27.77
2024-02-02T19:14:13.248Z,30.70
2024-02-02T19:16:43.197Z,29.05
2024-02-02T19:19:10.452Z,31.17
2024-02-02T19:21:37.797Z,35.45
2024-02-02T19:24:05.916Z,33.25
2024-02-02T19:26:33.090Z,32.83
2024-02-02T19:29:00.552Z,29.67
2024-02-02T19:31:30.677Z,29.33
2024-02-02T19:33:58.015Z,36.50
2024-02-02T19:36:27.703Z,42.25
2024-02-02T19:38:56.397Z,27.88
2024-02-02T19:41:29.822Z,30.90
2024-02-02T19:43:57.371Z,30.15
2024-02-02T19:46:26.104Z,36.50
2024-02-02T19:48:54.854Z,29.52
2024-02-02T19:51:23.305Z,34.75
2024-02-02T19:53:50.672Z,33.75
2024-02-02T19:56:19.575Z,33.53
2024-02-02T19:58:46.855Z,29.20
2024-02-02T20:01:21.938Z,28.67
2024-02-02T20:03:51.082Z,35.78
2024-02-02T20:06:20.294Z,29.85
2024-02-02T20:08:54.249Z,33.35
2024-02-02T20:11:23.051Z,27.60
2024-02-02T20:13:50.256Z,26.67
2024-02-02T20:16:18.939Z,33.47
2024-02-02T20:18:46.442Z,30.60
2024-02-02T20:21:14.966Z,29.48
2024-02-02T20:23:42.391Z,43.28
2024-02-02T20:26:16.367Z,32.95
2024-02-02T20:28:43.550Z,28.60
2024-02-02T20:31:11.337Z,27.30
2024-02-02T20:33:38.494Z,21.23
2024-02-02T20:36:05.757Z,21.77
2024-02-02T20:38:32.813Z,29.55
2024-02-02T20:41:00.058Z,20.48
2024-02-02T20:43:27.220Z,28.13
2024-02-02T20:45:54.261Z,39.28
2024-02-02T20:48:24.932Z,30.27
2024-02-02T20:50:52.708Z,21.52
2024-02-02T20:53:20.287Z,19.33
2024-02-02T20:55:47.401Z,23.77
2024-02-02T20:58:14.507Z,23.30
2024-02-02T21:00:42.126Z,16.42
2024-02-02T21:03:09.452Z,28.17
2024-02-02T21:05:36.958Z,21.08
2024-02-02T21:08:04.800Z,23.08
2024-02-02T21:10:32.677Z,21.52
2024-02-02T21:12:59.966Z,18.42
2024-02-02T21:15:33.406Z,24.92
2024-02-02T21:18:07.523Z,21.17
2024-02-02T21:20:44.172Z,21.35
2024-02-02T21:23:12.166Z,16.02
2024-02-02T21:25:44.382Z,19.27
2024-02-02T21:28:11.859Z,17.15
2024-02-02T21:30:38.996Z,18.02
2024-02-02T21:33:06.537Z,22.13
2024-02-02T21:35:33.830Z,20.85
2024-02-02T21:38:00.947Z,16.90
2024-02-02T21:40:28.110Z,27.77
2024-02-02T21:42:55.656Z,21.85
2024-02-02T21:45:23.295Z,17.95
2024-02-02T21:47:50.807Z,22.65
2024-02-02T21:50:18.299Z,17.50
2024-02-02T21:52:45.509Z,20.20
2024-02-02T21:55:12.600Z,14.25
2024-02-02T21:57:39.691Z,16.60
2024-02-02T22:00:08.689Z,24.85
2024-02-02T22:02:35.870Z,23.73
2024-02-02T22:05:03.158Z,21.52
2024-02-02T22:07:30.663Z,19.52
2024-02-02T22:09:57.898Z,19.33
2024-02-02T22:12:25.183Z,18.88
2024-02-02T22:14:53.069Z,17.35
2024-02-02T22:17:20.312Z,18.98
2024-02-02T22:19:47.586Z,15.15
2024-02-02T22:22:14.791Z,17.02
2024-02-02T22:24:42.526Z,17.05
2024-02-02T22:27:10.901Z,15.07
2024-02-02T22:29:38.000Z,14.77
2024-02-02T22:32:05.761Z,16.08
2024-02-02T22:34:33.919Z,16.85
2024-02-02T22:37:01.244Z,19.45
2024-02-02T22:39:28.511Z,20.20
2024-02-02T22:41:55.641Z,18.23
2024-02-02T22:44:22.781Z,19.90
2024-02-02T22:46:49.913Z,15.43
2024-02-02T22:49:17.220Z,19.25
2024-02-02T22:51:47.784Z,17.77
2024-02-02T22:54:15.629Z,17.30
2024-02-02T22:56:43.397Z,19.20
2024-02-02T22:59:11.284Z,13.70
2024-02-02T23:01:38.362Z,15.40
2024-02-02T23:04:05.864Z,16.70
2024-02-02T23:06:33.222Z,20.50
2024-02-02T23:09:00.451Z,18.88
2024-02-02T23:11:27.556Z,17.52
2024-02-02T23:13:54.678Z,17.42
2024-02-02T23:16:22.249Z,18.60
2024-02-02T23:18:49.572Z,17.45
2024-02-02T23:21:17.040Z,20.98
2024-02-02T23:23:44.343Z,18.70
2024-02-02T23:26:12.513Z,15.65
2024-02-02T23:28:39.769Z,15.23
2024-02-02T23:31:06.855Z,15.02
2024-02-02T23:33:34.001Z,26.48
2024-02-02T23:36:01.770Z,13.48
2024-02-02T23:38:28.900Z,21.17
2024-02-02T23:40:57.115Z,20.33
2024-02-02T23:43:24.349Z,16.77
2024-02-02T23:45:52.085Z,18.73
2024-02-02T23:48:19.709Z,17.67
2024-02-02T23:50:46.930Z,15.43
2024-02-02T23:53:14.322Z,12.85
2024-02-02T23:55:41.465Z,17.60
2024-02-02T23:58:08.574Z,13.93
